Date,TemperatureHighF,TemperatureAvgF,TemperatureLowF,DewpointHighF,DewpointAvgF,DewpointLowF,HumidityHigh,HumidityAvg,HumidityLow,PressureMaxIn,PressureMinIn,WindSpeedMaxMPH,WindSpeedAvgMPH,GustSpeedMaxMPH,PrecipitationSumIn
2013-2-1,17,14,8,14,10,2,92,86,71,30.49,29.85,31,11,32,0.00
2013-2-2,16,13,9,14,9,4,93,85,72,30.49,30.15,18,3,25,0.00
2013-2-3,22,17,14,19,14,10,93,87,73,30.15,29.94,21,5,21,0.01
2013-2-4,21,17,13,18,14,10,100,88,76,30.19,30.04,23,5,23,0.00
2013-2-5,28,20,9,22,17,7,94,88,74,30.08,29.96,9,1,10,0.04
2013-2-6,26,19,2,23,15,0,93,86,59,30.54,30.05,18,4,19,0.01
2013-2-7,40,22,0,29,16,-3,92,77,54,30.61,30.15,16,2,23,0.02
2013-2-8,35,28,15,32,24,11,94,86,76,30.22,29.74,25,6,30,0.29
2013-2-9,26,16,5,17,12,2,91,82,64,30.63,30.22,13,3,15,0.00
2013-2-10,44,22,0,29,14,-3,89,73,39,30.65,30.10,20,1,20,0.01
2013-2-11,47,37,32,43,32,23,97,82,54,30.10,29.56,34,7,34,0.17
2013-2-12,32,29,22,26,24,19,91,81,76,30.06,29.81,28,9,31,0.00
2013-2-13,40,30,24,29,24,21,91,80,58,29.99,29.72,11,1,12,0.00
2013-2-14,35,29,21,33,27,19,95,89,85,29.99,29.86,13,2,15,0.27
2013-2-15,35,30,22,33,24,16,94,78,70,30.13,29.89,20,7,24,0.01
2013-2-16,26,19,8,19,12,4,89,74,53,30.14,30.04,18,2,20,0.00
2013-2-17,17,12,5,12,7,2,90,83,70,30.46,30.07,23,6,26,0.00
2013-2-18,36,20,-1,24,12,-4,90,73,43,30.56,30.04,14,1,15,0.01
2013-2-19,42,31,18,37,27,14,92,86,57,30.04,29.58,32,8,38,0.67
2013-2-20,18,16,15,14,12,9,90,82,71,30.34,29.89,27,12,31,0.00
2013-2-21,22,16,9,14,12,6,91,82,67,30.60,30.31,20,5,21,0.00
2013-2-22,30,25,14,28,21,12,93,85,67,30.57,30.12,20,5,25,0.00
2013-2-23,36,31,27,32,29,23,95,91,83,30.13,29.89,11,1,13,0.04
2013-2-24,28,27,25,25,22,19,92,82,75,30.22,29.89,22,6,22,0.00
2013-2-25,35,26,19,25,22,17,93,83,63,30.37,30.22,9,1,10,0.00
2013-2-26,38,30,18,32,26,16,99,85,65,30.28,29.64,24,6,29,0.97
2013-2-27,36,34,32,35,32,30,99,93,86,29.65,29.54,22,3,29,0.33
2013-2-28,33,31,30,32,30,27,100,93,86,29.79,29.54,15,5,16,0.14